sensor_id;sensor_type;location;lat;lon;timestamp;temperature;humidity
65374;SHT31;52070;53.760;9.678;2024-02-23T00:00:17;9.34;68.00
65374;SHT31;52070;53.760;9.678;2024-02-23T00:02:44;9.27;68.61
65374;SHT31;52070;53.760;9.678;2024-02-23T00:05:11;9.17;69.45
65374;SHT31;52070;53.760;9.678;2024-02-23T00:07:41;9.11;70.28
65374;SHT31;52070;53.760;9.678;2024-02-23T00:10:09;9.20;69.82
65374;SHT31;52070;53.760;9.678;2024-02-23T00:12:36;9.14;69.78
65374;SHT31;52070;53.760;9.678;2024-02-23T00:15:03;9.15;69.45
65374;SHT31;52070;53.760;9.678;2024-02-23T00:17:30;9.20;69.16
65374;SHT31;52070;53.760;9.678;2024-02-23T00:19:57;9.20;69.55
65374;SHT31;52070;53.760;9.678;2024-02-23T00:22:24;9.15;70.41
65374;SHT31;52070;53.760;9.678;2024-02-23T00:24:51;9.10;72.01
65374;SHT31;52070;53.760;9.678;2024-02-23T00:27:20;8.74;75.76
65374;SHT31;52070;53.760;9.678;2024-02-23T00:29:47;8.32;78.19
65374;SHT31;52070;53.760;9.678;2024-02-23T00:32:13;8.17;78.61
65374;SHT31;52070;53.760;9.678;2024-02-23T00:34:40;8.17;78.55
65374;SHT31;52070;53.760;9.678;2024-02-23T00:37:07;8.21;77.70
65374;SHT31;52070;53.760;9.678;2024-02-23T00:39:34;8.12;77.76
65374;SHT31;52070;53.760;9.678;2024-02-23T00:42:02;8.12;77.43
65374;SHT31;52070;53.760;9.678;2024-02-23T00:44:30;8.13;76.83
65374;SHT31;52070;53.760;9.678;2024-02-23T00:46:57;8.07;76.91
65374;SHT31;52070;53.760;9.678;2024-02-23T00:49:27;8.12;76.42
65374;SHT31;52070;53.760;9.678;2024-02-23T00:51:54;8.10;76.35
65374;SHT31;52070;53.760;9.678;2024-02-23T00:54:21;8.01;74.73
65374;SHT31;52070;53.760;9.678;2024-02-23T00:56:48;7.85;74.44
65374;SHT31;52070;53.760;9.678;2024-02-23T00:59:15;7.72;74.95
65374;SHT31;52070;53.760;9.678;2024-02-23T01:01:43;7.64;75.06
65374;SHT31;52070;53.760;9.678;2024-02-23T01:04:10;7.55;75.31
65374;SHT31;52070;53.760;9.678;2024-02-23T01:06:37;7.44;75.68
65374;SHT31;52070;53.760;9.678;2024-02-23T01:09:04;7.37;76.05
65374;SHT31;52070;53.760;9.678;2024-02-23T01:11:31;7.28;76.72
65374;SHT31;52070;53.760;9.678;2024-02-23T01:13:58;7.20;77.42
65374;SHT31;52070;53.760;9.678;2024-02-23T01:16:25;7.21;76.99
65374;SHT31;52070;53.760;9.678;2024-02-23T01:18:53;7.19;76.82
65374;SHT31;52070;53.760;9.678;2024-02-23T01:21:20;7.16;77.20
65374;SHT31;52070;53.760;9.678;2024-02-23T01:23:47;7.13;77.73
65374;SHT31;52070;53.760;9.678;2024-02-23T01:26:14;7.10;78.09
65374;SHT31;52070;53.760;9.678;2024-02-23T01:28:41;7.06;78.02
65374;SHT31;52070;53.760;9.678;2024-02-23T01:31:08;7.04;77.77
65374;SHT31;52070;53.760;9.678;2024-02-23T01:33:37;7.03;77.73
65374;SHT31;52070;53.760;9.678;2024-02-23T01:36:06;7.01;77.30
65374;SHT31;52070;53.760;9.678;2024-02-23T01:38:33;6.99;76.77
65374;SHT31;52070;53.760;9.678;2024-02-23T01:41:00;6.95;77.20
65374;SHT31;52070;53.760;9.678;2024-02-23T01:43:28;6.89;77.48
65374;SHT31;52070;53.760;9.678;2024-02-23T01:45:55;6.87;77.81
65374;SHT31;52070;53.760;9.678;2024-02-23T01:48:22;6.82;77.19
65374;SHT31;52070;53.760;9.678;2024-02-23T01:50:49;6.82;77.35
65374;SHT31;52070;53.760;9.678;2024-02-23T01:53:18;6.79;77.02
65374;SHT31;52070;53.760;9.678;2024-02-23T01:55:45;6.75;77.60
65374;SHT31;52070;53.760;9.678;2024-02-23T01:58:12;6.72;77.68
65374;SHT31;52070;53.760;9.678;2024-02-23T02:00:39;6.69;78.02
65374;SHT31;52070;53.760;9.678;2024-02-23T02:03:07;6.64;78.12
65374;SHT31;52070;53.760;9.678;2024-02-23T02:05:35;6.65;78.01
65374;SHT31;52070;53.760;9.678;2024-02-23T02:08:03;6.57;77.65
65374;SHT31;52070;53.760;9.678;2024-02-23T02:10:31;6.57;77.43
65374;SHT31;52070;53.760;9.678;2024-02-23T02:13:02;6.57;77.36
65374;SHT31;52070;53.760;9.678;2024-02-23T02:15:29;6.55;77.54
65374;SHT31;52070;53.760;9.678;2024-02-23T02:17:55;6.48;77.71
65374;SHT31;52070;53.760;9.678;2024-02-23T02:20:24;6.46;78.37
65374;SHT31;52070;53.760;9.678;2024-02-23T02:22:52;6.42;79.00
65374;SHT31;52070;53.760;9.678;2024-02-23T02:25:19;6.36;79.69
65374;SHT31;52070;53.760;9.678;2024-02-23T02:27:47;6.29;80.02
65374;SHT31;52070;53.760;9.678;2024-02-23T02:30:14;6.26;80.09
65374;SHT31;52070;53.760;9.678;2024-02-23T02:32:41;6.26;79.99
65374;SHT31;52070;53.760;9.678;2024-02-23T02:35:10;6.24;79.43
65374;SHT31;52070;53.760;9.678;2024-02-23T02:37:37;6.21;78.59
65374;SHT31;52070;53.760;9.678;2024-02-23T02:40:05;6.15;79.05
65374;SHT31;52070;53.760;9.678;2024-02-23T02:42:32;6.15;79.44
65374;SHT31;52070;53.760;9.678;2024-02-23T02:45:01;6.11;79.55
65374;SHT31;52070;53.760;9.678;2024-02-23T02:47:28;6.10;79.55
65374;SHT31;52070;53.760;9.678;2024-02-23T02:49:55;6.07;79.75
65374;SHT31;52070;53.760;9.678;2024-02-23T02:52:22;6.01;79.98
65374;SHT31;52070;53.760;9.678;2024-02-23T02:54:49;6.00;80.01
65374;SHT31;52070;53.760;9.678;2024-02-23T02:57:16;5.95;79.64
65374;SHT31;52070;53.760;9.678;2024-02-23T02:59:43;5.93;80.00
65374;SHT31;52070;53.760;9.678;2024-02-23T03:02:13;5.93;80.37
65374;SHT31;52070;53.760;9.678;2024-02-23T03:04:47;5.90;80.56
65374;SHT31;52070;53.760;9.678;2024-02-23T03:07:14;5.87;80.79
65374;SHT31;52070;53.760;9.678;2024-02-23T03:09:41;5.84;80.72
65374;SHT31;52070;53.760;9.678;2024-02-23T03:12:08;5.86;81.11
65374;SHT31;52070;53.760;9.678;2024-02-23T03:14:35;5.84;81.33
65374;SHT31;52070;53.760;9.678;2024-02-23T03:17:06;5.86;81.33
65374;SHT31;52070;53.760;9.678;2024-02-23T03:19:34;5.89;81.10
65374;SHT31;52070;53.760;9.678;2024-02-23T03:22:01;5.89;81.12
65374;SHT31;52070;53.760;9.678;2024-02-23T03:24:28;5.94;81.13
65374;SHT31;52070;53.760;9.678;2024-02-23T03:26:55;5.93;80.94
65374;SHT31;52070;53.760;9.678;2024-02-23T03:29:22;5.93;81.35
65374;SHT31;52070;53.760;9.678;2024-02-23T03:31:50;5.97;81.24
65374;SHT31;52070;53.760;9.678;2024-02-23T03:34:17;5.93;80.76
65374;SHT31;52070;53.760;9.678;2024-02-23T03:36:45;5.97;80.36
65374;SHT31;52070;53.760;9.678;2024-02-23T03:39:12;5.97;80.82
65374;SHT31;52070;53.760;9.678;2024-02-23T03:41:39;5.94;80.43
65374;SHT31;52070;53.760;9.678;2024-02-23T03:44:06;5.98;79.61
65374;SHT31;52070;53.760;9.678;2024-02-23T03:46:33;5.95;79.44
65374;SHT31;52070;53.760;9.678;2024-02-23T03:49:01;5.94;79.03
65374;SHT31;52070;53.760;9.678;2024-02-23T03:51:28;5.97;79.32
65374;SHT31;52070;53.760;9.678;2024-02-23T03:53:56;5.91;79.04
65374;SHT31;52070;53.760;9.678;2024-02-23T03:56:23;5.86;79.11
65374;SHT31;52070;53.760;9.678;2024-02-23T03:58:50;5.83;79.16
65374;SHT31;52070;53.760;9.678;2024-02-23T04:01:18;5.80;79.11
65374;SHT31;52070;53.760;9.678;2024-02-23T04:03:44;5.78;79.25
65374;SHT31;52070;53.760;9.678;2024-02-23T04:06:11;5.70;79.26
65374;SHT31;52070;53.760;9.678;2024-02-23T04:08:39;5.69;79.50
65374;SHT31;52070;53.760;9.678;2024-02-23T04:11:12;5.66;79.28
65374;SHT31;52070;53.760;9.678;2024-02-23T04:13:39;5.61;79.32
65374;SHT31;52070;53.760;9.678;2024-02-23T04:16:06;5.50;79.60
65374;SHT31;52070;53.760;9.678;2024-02-23T04:18:33;5.51;79.64
65374;SHT31;52070;53.760;9.678;2024-02-23T04:21:00;5.49;80.03
65374;SHT31;52070;53.760;9.678;2024-02-23T04:23:27;5.49;80.00
65374;SHT31;52070;53.760;9.678;2024-02-23T04:25:54;5.47;79.97
65374;SHT31;52070;53.760;9.678;2024-02-23T04:28:22;5.47;80.08
65374;SHT31;52070;53.760;9.678;2024-02-23T04:30:51;5.47;80.49
65374;SHT31;52070;53.760;9.678;2024-02-23T04:33:18;5.49;80.71
65374;SHT31;52070;53.760;9.678;2024-02-23T04:35:45;5.44;81.00
65374;SHT31;52070;53.760;9.678;2024-02-23T04:38:12;5.43;81.25
65374;SHT31;52070;53.760;9.678;2024-02-23T04:40:39;5.43;81.33
65374;SHT31;52070;53.760;9.678;2024-02-23T04:43:05;5.42;81.55
65374;SHT31;52070;53.760;9.678;2024-02-23T04:45:34;5.44;81.37
65374;SHT31;52070;53.760;9.678;2024-02-23T04:48:01;5.47;81.42
65374;SHT31;52070;53.760;9.678;2024-02-23T04:50:29;5.47;81.35
65374;SHT31;52070;53.760;9.678;2024-02-23T04:52:56;5.49;81.48
65374;SHT31;52070;53.760;9.678;2024-02-23T04:55:23;5.50;81.56
65374;SHT31;52070;53.760;9.678;2024-02-23T04:57:50;5.51;81.34
65374;SHT31;52070;53.760;9.678;2024-02-23T05:00:17;5.51;81.71
65374;SHT31;52070;53.760;9.678;2024-02-23T05:02:46;5.57;81.12
65374;SHT31;52070;53.760;9.678;2024-02-23T05:05:13;5.57;81.28
65374;SHT31;52070;53.760;9.678;2024-02-23T05:07:40;5.56;81.38
65374;SHT31;52070;53.760;9.678;2024-02-23T05:10:08;5.61;81.17
65374;SHT31;52070;53.760;9.678;2024-02-23T05:12:36;5.64;81.01
65374;SHT31;52070;53.760;9.678;2024-02-23T05:15:03;5.64;80.92
65374;SHT31;52070;53.760;9.678;2024-02-23T05:17:30;5.66;80.94
65374;SHT31;52070;53.760;9.678;2024-02-23T05:19:58;5.64;81.04
65374;SHT31;52070;53.760;9.678;2024-02-23T05:22:25;5.69;80.81
65374;SHT31;52070;53.760;9.678;2024-02-23T05:24:52;5.69;81.00
65374;SHT31;52070;53.760;9.678;2024-02-23T05:27:19;5.67;81.41
65374;SHT31;52070;53.760;9.678;2024-02-23T05:29:46;5.64;81.43
65374;SHT31;52070;53.760;9.678;2024-02-23T05:32:13;5.63;81.59
65374;SHT31;52070;53.760;9.678;2024-02-23T05:34:40;5.60;81.48
65374;SHT31;52070;53.760;9.678;2024-02-23T05:37:08;5.56;81.69
65374;SHT31;52070;53.760;9.678;2024-02-23T05:39:35;5.56;81.53
65374;SHT31;52070;53.760;9.678;2024-02-23T05:42:03;5.54;81.90
65374;SHT31;52070;53.760;9.678;2024-02-23T05:44:30;5.53;81.58
65374;SHT31;52070;53.760;9.678;2024-02-23T05:46:57;5.54;81.21
65374;SHT31;52070;53.760;9.678;2024-02-23T05:49:24;5.56;80.84
65374;SHT31;52070;53.760;9.678;2024-02-23T05:51:51;5.56;80.78
65374;SHT31;52070;53.760;9.678;2024-02-23T05:54:19;5.57;80.61
65374;SHT31;52070;53.760;9.678;2024-02-23T05:56:46;5.53;80.49
65374;SHT31;52070;53.760;9.678;2024-02-23T05:59:13;5.57;80.13
65374;SHT31;52070;53.760;9.678;2024-02-23T06:01:40;5.59;79.80
65374;SHT31;52070;53.760;9.678;2024-02-23T06:04:07;5.59;80.02
65374;SHT31;52070;53.760;9.678;2024-02-23T06:06:34;5.60;79.83
65374;SHT31;52070;53.760;9.678;2024-02-23T06:09:01;5.64;79.62
65374;SHT31;52070;53.760;9.678;2024-02-23T06:11:30;5.64;79.64
65374;SHT31;52070;53.760;9.678;2024-02-23T06:13:57;5.61;79.11
65374;SHT31;52070;53.760;9.678;2024-02-23T06:16:24;5.67;78.71
65374;SHT31;52070;53.760;9.678;2024-02-23T06:18:51;5.59;79.25
65374;SHT31;52070;53.760;9.678;2024-02-23T06:21:18;5.54;79.77
65374;SHT31;52070;53.760;9.678;2024-02-23T06:23:45;5.50;80.15
65374;SHT31;52070;53.760;9.678;2024-02-23T06:26:12;5.42;80.23
65374;SHT31;52070;53.760;9.678;2024-02-23T06:28:40;5.40;80.11
65374;SHT31;52070;53.760;9.678;2024-02-23T06:31:08;5.39;80.06
65374;SHT31;52070;53.760;9.678;2024-02-23T06:33:35;5.37;80.09
65374;SHT31;52070;53.760;9.678;2024-02-23T06:36:03;5.39;79.87
65374;SHT31;52070;53.760;9.678;2024-02-23T06:38:30;5.36;80.18
65374;SHT31;52070;53.760;9.678;2024-02-23T06:40:57;5.36;80.32
65374;SHT31;52070;53.760;9.678;2024-02-23T06:43:24;5.35;80.34
65374;SHT31;52070;53.760;9.678;2024-02-23T06:45:53;5.26;80.14
65374;SHT31;52070;53.760;9.678;2024-02-23T06:48:20;5.20;80.56
65374;SHT31;52070;53.760;9.678;2024-02-23T06:50:47;5.23;80.49
65374;SHT31;52070;53.760;9.678;2024-02-23T06:53:14;5.20;80.56
65374;SHT31;52070;53.760;9.678;2024-02-23T06:55:41;5.15;80.48
65374;SHT31;52070;53.760;9.678;2024-02-23T06:58:08;5.16;80.57
65374;SHT31;52070;53.760;9.678;2024-02-23T07:00:36;5.22;80.48
65374;SHT31;52070;53.760;9.678;2024-02-23T07:03:05;5.19;80.46
65374;SHT31;52070;53.760;9.678;2024-02-23T07:05:32;5.20;80.30
65374;SHT31;52070;53.760;9.678;2024-02-23T07:08:01;5.25;80.17
65374;SHT31;52070;53.760;9.678;2024-02-23T07:10:28;5.26;80.13
65374;SHT31;52070;53.760;9.678;2024-02-23T07:12:55;5.26;80.25
65374;SHT31;52070;53.760;9.678;2024-02-23T07:15:23;5.25;80.41
65374;SHT31;52070;53.760;9.678;2024-02-23T07:17:51;5.25;80.63
65374;SHT31;52070;53.760;9.678;2024-02-23T07:20:19;5.25;80.82
65374;SHT31;52070;53.760;9.678;2024-02-23T07:22:46;5.25;80.74
65374;SHT31;52070;53.760;9.678;2024-02-23T07:25:16;5.25;80.79
65374;SHT31;52070;53.760;9.678;2024-02-23T07:27:43;5.27;80.60
65374;SHT31;52070;53.760;9.678;2024-02-23T07:30:11;5.27;80.68
65374;SHT31;52070;53.760;9.678;2024-02-23T07:32:38;5.27;80.85
65374;SHT31;52070;53.760;9.678;2024-02-23T07:35:06;5.30;80.70
65374;SHT31;52070;53.760;9.678;2024-02-23T07:37:34;5.27;80.74
65374;SHT31;52070;53.760;9.678;2024-02-23T07:40:02;5.32;80.73
65374;SHT31;52070;53.760;9.678;2024-02-23T07:42:29;5.33;81.04
65374;SHT31;52070;53.760;9.678;2024-02-23T07:44:56;5.37;80.96
65374;SHT31;52070;53.760;9.678;2024-02-23T07:47:24;5.40;80.74
65374;SHT31;52070;53.760;9.678;2024-02-23T07:49:52;5.47;80.76
65374;SHT31;52070;53.760;9.678;2024-02-23T07:52:20;5.51;80.41
65374;SHT31;52070;53.760;9.678;2024-02-23T07:54:50;5.53;80.54
65374;SHT31;52070;53.760;9.678;2024-02-23T07:57:18;5.57;80.44
65374;SHT31;52070;53.760;9.678;2024-02-23T07:59:45;5.57;80.13
65374;SHT31;52070;53.760;9.678;2024-02-23T08:02:12;5.64;79.79
65374;SHT31;52070;53.760;9.678;2024-02-23T08:04:39;5.69;79.78
65374;SHT31;52070;53.760;9.678;2024-02-23T08:07:07;5.69;79.64
65374;SHT31;52070;53.760;9.678;2024-02-23T08:09:34;5.71;79.59
65374;SHT31;52070;53.760;9.678;2024-02-23T08:12:03;5.67;79.72
65374;SHT31;52070;53.760;9.678;2024-02-23T08:14:30;5.71;79.98
65374;SHT31;52070;53.760;9.678;2024-02-23T08:16:58;5.74;80.07
65374;SHT31;52070;53.760;9.678;2024-02-23T08:19:25;5.75;79.93
65374;SHT31;52070;53.760;9.678;2024-02-23T08:21:52;5.83;80.08
65374;SHT31;52070;53.760;9.678;2024-02-23T08:24:19;5.86;80.28
65374;SHT31;52070;53.760;9.678;2024-02-23T08:26:46;5.91;79.84
65374;SHT31;52070;53.760;9.678;2024-02-23T08:29:15;5.94;79.39
65374;SHT31;52070;53.760;9.678;2024-02-23T08:31:42;5.94;80.45
65374;SHT31;52070;53.760;9.678;2024-02-23T08:34:09;6.04;79.34
65374;SHT31;52070;53.760;9.678;2024-02-23T08:36:36;6.10;78.85
65374;SHT31;52070;53.760;9.678;2024-02-23T08:39:03;6.08;78.49
65374;SHT31;52070;53.760;9.678;2024-02-23T08:41:30;6.10;78.45
65374;SHT31;52070;53.760;9.678;2024-02-23T08:43:57;6.10;78.54
65374;SHT31;52070;53.760;9.678;2024-02-23T08:46:25;6.14;78.78
65374;SHT31;52070;53.760;9.678;2024-02-23T08:48:52;6.29;78.39
65374;SHT31;52070;53.760;9.678;2024-02-23T08:51:19;6.45;77.49
65374;SHT31;52070;53.760;9.678;2024-02-23T08:53:46;6.39;76.68
65374;SHT31;52070;53.760;9.678;2024-02-23T08:56:13;6.32;76.89
65374;SHT31;52070;53.760;9.678;2024-02-23T08:58:41;6.39;76.67
65374;SHT31;52070;53.760;9.678;2024-02-23T09:01:08;6.45;77.33
65374;SHT31;52070;53.760;9.678;2024-02-23T09:03:37;6.42;76.75
65374;SHT31;52070;53.760;9.678;2024-02-23T09:06:04;6.45;76.32
65374;SHT31;52070;53.760;9.678;2024-02-23T09:08:31;6.42;75.89
65374;SHT31;52070;53.760;9.678;2024-02-23T09:10:58;6.45;75.74
65374;SHT31;52070;53.760;9.678;2024-02-23T09:13:25;6.50;75.60
65374;SHT31;52070;53.760;9.678;2024-02-23T09:15:53;6.56;75.60
65374;SHT31;52070;53.760;9.678;2024-02-23T09:18:20;6.64;75.24
65374;SHT31;52070;53.760;9.678;2024-02-23T09:20:48;6.76;75.09
65374;SHT31;52070;53.760;9.678;2024-02-23T09:23:15;6.80;73.88
65374;SHT31;52070;53.760;9.678;2024-02-23T09:25:42;6.90;74.35
65374;SHT31;52070;53.760;9.678;2024-02-23T09:28:09;6.95;73.72
65374;SHT31;52070;53.760;9.678;2024-02-23T09:30:37;6.85;73.39
65374;SHT31;52070;53.760;9.678;2024-02-23T09:33:05;6.99;73.65
65374;SHT31;52070;53.760;9.678;2024-02-23T09:35:32;7.09;73.19
65374;SHT31;52070;53.760;9.678;2024-02-23T09:38:00;7.07;72.86
65374;SHT31;52070;53.760;9.678;2024-02-23T09:40:28;7.13;73.13
65374;SHT31;52070;53.760;9.678;2024-02-23T09:42:56;7.11;72.82
65374;SHT31;52070;53.760;9.678;2024-02-23T09:45:24;7.17;72.88
65374;SHT31;52070;53.760;9.678;2024-02-23T09:47:53;7.20;72.54
65374;SHT31;52070;53.760;9.678;2024-02-23T09:50:22;7.26;72.68
65374;SHT31;52070;53.760;9.678;2024-02-23T09:52:50;7.21;71.67
65374;SHT31;52070;53.760;9.678;2024-02-23T09:55:18;7.31;72.15
65374;SHT31;52070;53.760;9.678;2024-02-23T09:57:48;7.24;72.24
65374;SHT31;52070;53.760;9.678;2024-02-23T10:00:16;7.21;71.74
65374;SHT31;52070;53.760;9.678;2024-02-23T10:02:44;7.30;72.37
65374;SHT31;52070;53.760;9.678;2024-02-23T10:05:11;7.44;71.77
65374;SHT31;52070;53.760;9.678;2024-02-23T10:07:38;7.82;71.91
65374;SHT31;52070;53.760;9.678;2024-02-23T10:10:07;7.71;70.21
65374;SHT31;52070;53.760;9.678;2024-02-23T10:12:35;7.79;69.71
65374;SHT31;52070;53.760;9.678;2024-02-23T10:15:02;7.68;70.25
65374;SHT31;52070;53.760;9.678;2024-02-23T10:17:29;7.52;70.27
65374;SHT31;52070;53.760;9.678;2024-02-23T10:19:56;7.48;71.30
65374;SHT31;52070;53.760;9.678;2024-02-23T10:22:24;7.44;71.62
65374;SHT31;52070;53.760;9.678;2024-02-23T10:24:51;7.44;71.55
65374;SHT31;52070;53.760;9.678;2024-02-23T10:27:18;7.44;72.05
65374;SHT31;52070;53.760;9.678;2024-02-23T10:29:50;7.37;71.71
65374;SHT31;52070;53.760;9.678;2024-02-23T10:32:19;7.40;72.16
65374;SHT31;52070;53.760;9.678;2024-02-23T10:34:48;7.38;71.65
65374;SHT31;52070;53.760;9.678;2024-02-23T10:37:15;7.41;71.73
65374;SHT31;52070;53.760;9.678;2024-02-23T10:39:42;7.47;71.61
65374;SHT31;52070;53.760;9.678;2024-02-23T10:42:09;7.47;71.45
65374;SHT31;52070;53.760;9.678;2024-02-23T10:44:37;7.51;71.36
65374;SHT31;52070;53.760;9.678;2024-02-23T10:47:07;7.71;70.78
65374;SHT31;52070;53.760;9.678;2024-02-23T10:49:34;7.99;69.61
65374;SHT31;52070;53.760;9.678;2024-02-23T10:52:01;8.03;69.52
65374;SHT31;52070;53.760;9.678;2024-02-23T10:54:31;7.91;69.48
65374;SHT31;52070;53.760;9.678;2024-02-23T10:56:58;7.88;68.20
65374;SHT31;52070;53.760;9.678;2024-02-23T10:59:26;7.83;68.22
65374;SHT31;52070;53.760;9.678;2024-02-23T11:01:55;7.86;68.52
65374;SHT31;52070;53.760;9.678;2024-02-23T11:04:25;7.91;68.83
65374;SHT31;52070;53.760;9.678;2024-02-23T11:06:54;7.78;68.51
65374;SHT31;52070;53.760;9.678;2024-02-23T11:09:22;7.72;69.06
65374;SHT31;52070;53.760;9.678;2024-02-23T11:11:53;7.70;68.90
65374;SHT31;52070;53.760;9.678;2024-02-23T11:14:29;7.65;68.35
65374;SHT31;52070;53.760;9.678;2024-02-23T11:16:58;7.70;69.12
65374;SHT31;52070;53.760;9.678;2024-02-23T11:19:33;7.72;68.69
65374;SHT31;52070;53.760;9.678;2024-02-23T11:22:01;7.65;68.75
65374;SHT31;52070;53.760;9.678;2024-02-23T11:24:29;7.72;68.86
65374;SHT31;52070;53.760;9.678;2024-02-23T11:26:57;7.79;68.93
65374;SHT31;52070;53.760;9.678;2024-02-23T11:29:26;7.96;69.26
65374;SHT31;52070;53.760;9.678;2024-02-23T11:31:53;8.28;68.44
65374;SHT31;52070;53.760;9.678;2024-02-23T11:34:22;9.10;67.11
65374;SHT31;52070;53.760;9.678;2024-02-23T11:36:52;9.12;65.05
65374;SHT31;52070;53.760;9.678;2024-02-23T11:39:19;8.85;65.18
65374;SHT31;52070;53.760;9.678;2024-02-23T11:41:48;8.76;66.11
65374;SHT31;52070;53.760;9.678;2024-02-23T11:44:15;8.45;66.34
65374;SHT31;52070;53.760;9.678;2024-02-23T11:46:43;8.26;67.66
65374;SHT31;52070;53.760;9.678;2024-02-23T11:49:10;8.16;68.02
65374;SHT31;52070;53.760;9.678;2024-02-23T11:51:37;8.07;67.97
65374;SHT31;52070;53.760;9.678;2024-02-23T11:54:06;8.13;68.54
65374;SHT31;52070;53.760;9.678;2024-02-23T11:56:33;8.09;68.20
65374;SHT31;52070;53.760;9.678;2024-02-23T11:59:01;8.12;67.24
65374;SHT31;52070;53.760;9.678;2024-02-23T12:01:29;8.15;67.40
65374;SHT31;52070;53.760;9.678;2024-02-23T12:03:56;8.19;67.30
65374;SHT31;52070;53.760;9.678;2024-02-23T12:06:23;8.22;67.86
65374;SHT31;52070;53.760;9.678;2024-02-23T12:08:50;8.21;67.59
65374;SHT31;52070;53.760;9.678;2024-02-23T12:11:19;8.15;67.16
65374;SHT31;52070;53.760;9.678;2024-02-23T12:13:46;8.13;66.56
65374;SHT31;52070;53.760;9.678;2024-02-23T12:16:14;8.12;66.72
65374;SHT31;52070;53.760;9.678;2024-02-23T12:18:41;8.23;67.39
65374;SHT31;52070;53.760;9.678;2024-02-23T12:21:08;8.40;67.31
65374;SHT31;52070;53.760;9.678;2024-02-23T12:23:42;8.43;66.19
65374;SHT31;52070;53.760;9.678;2024-02-23T12:26:10;8.33;66.05
65374;SHT31;52070;53.760;9.678;2024-02-23T12:28:40;8.25;64.54
65374;SHT31;52070;53.760;9.678;2024-02-23T12:31:07;8.30;65.67
65374;SHT31;52070;53.760;9.678;2024-02-23T12:33:36;8.35;65.84
65374;SHT31;52070;53.760;9.678;2024-02-23T12:36:06;8.26;65.22
65374;SHT31;52070;53.760;9.678;2024-02-23T12:38:33;8.29;65.47
65374;SHT31;52070;53.760;9.678;2024-02-23T12:41:01;8.33;65.70
65374;SHT31;52070;53.760;9.678;2024-02-23T12:43:30;8.37;65.32
65374;SHT31;52070;53.760;9.678;2024-02-23T12:45:58;8.43;65.07
65374;SHT31;52070;53.760;9.678;2024-02-23T12:48:27;8.37;65.25
65374;SHT31;52070;53.760;9.678;2024-02-23T12:50:54;8.40;64.13
65374;SHT31;52070;53.760;9.678;2024-02-23T12:53:31;8.40;64.56
65374;SHT31;52070;53.760;9.678;2024-02-23T12:55:59;8.33;64.07
65374;SHT31;52070;53.760;9.678;2024-02-23T12:58:26;8.42;64.87
65374;SHT31;52070;53.760;9.678;2024-02-23T13:00:53;8.36;64.13
65374;SHT31;52070;53.760;9.678;2024-02-23T13:03:22;8.36;64.83
65374;SHT31;52070;53.760;9.678;2024-02-23T13:05:49;8.35;64.94
65374;SHT31;52070;53.760;9.678;2024-02-23T13:08:16;8.36;65.45
65374;SHT31;52070;53.760;9.678;2024-02-23T13:10:43;8.39;65.51
65374;SHT31;52070;53.760;9.678;2024-02-23T13:13:10;8.39;64.69
65374;SHT31;52070;53.760;9.678;2024-02-23T13:15:38;8.45;64.35
65374;SHT31;52070;53.760;9.678;2024-02-23T13:18:05;8.40;64.85
65374;SHT31;52070;53.760;9.678;2024-02-23T13:20:33;8.43;64.70
65374;SHT31;52070;53.760;9.678;2024-02-23T13:23:01;8.37;64.14
65374;SHT31;52070;53.760;9.678;2024-02-23T13:25:28;8.33;63.26
65374;SHT31;52070;53.760;9.678;2024-02-23T13:27:55;8.39;63.53
65374;SHT31;52070;53.760;9.678;2024-02-23T13:30:22;8.39;64.19
65374;SHT31;52070;53.760;9.678;2024-02-23T13:32:49;8.36;64.29
65374;SHT31;52070;53.760;9.678;2024-02-23T13:35:16;8.33;65.04
65374;SHT31;52070;53.760;9.678;2024-02-23T13:37:44;8.35;65.55
65374;SHT31;52070;53.760;9.678;2024-02-23T13:40:11;8.35;65.17
65374;SHT31;52070;53.760;9.678;2024-02-23T13:42:38;8.33;65.34
65374;SHT31;52070;53.760;9.678;2024-02-23T13:45:06;8.29;64.61
65374;SHT31;52070;53.760;9.678;2024-02-23T13:47:34;8.30;64.56
65374;SHT31;52070;53.760;9.678;2024-02-23T13:50:02;8.32;64.75
65374;SHT31;52070;53.760;9.678;2024-02-23T13:52:29;8.32;65.29
65374;SHT31;52070;53.760;9.678;2024-02-23T13:54:57;8.32;64.50
65374;SHT31;52070;53.760;9.678;2024-02-23T13:57:24;8.36;64.94
65374;SHT31;52070;53.760;9.678;2024-02-23T13:59:51;8.37;65.12
65374;SHT31;52070;53.760;9.678;2024-02-23T14:02:24;8.42;64.50
65374;SHT31;52070;53.760;9.678;2024-02-23T14:04:52;8.76;63.71
65374;SHT31;52070;53.760;9.678;2024-02-23T14:07:19;9.45;62.11
65374;SHT31;52070;53.760;9.678;2024-02-23T14:09:47;9.39;61.22
65374;SHT31;52070;53.760;9.678;2024-02-23T14:12:15;9.43;60.34
65374;SHT31;52070;53.760;9.678;2024-02-23T14:14:43;9.15;61.20
65374;SHT31;52070;53.760;9.678;2024-02-23T14:17:10;9.00;62.10
65374;SHT31;52070;53.760;9.678;2024-02-23T14:19:37;8.84;62.00
65374;SHT31;52070;53.760;9.678;2024-02-23T14:22:05;8.76;62.56
65374;SHT31;52070;53.760;9.678;2024-02-23T14:24:32;8.73;63.14
65374;SHT31;52070;53.760;9.678;2024-02-23T14:26:59;8.74;62.25
65374;SHT31;52070;53.760;9.678;2024-02-23T14:29:27;8.73;62.08
65374;SHT31;52070;53.760;9.678;2024-02-23T14:31:54;8.78;62.15
65374;SHT31;52070;53.760;9.678;2024-02-23T14:34:21;8.83;62.03
65374;SHT31;52070;53.760;9.678;2024-02-23T14:36:49;8.76;61.56
65374;SHT31;52070;53.760;9.678;2024-02-23T14:39:16;8.68;62.08
65374;SHT31;52070;53.760;9.678;2024-02-23T14:41:43;8.67;62.57
65374;SHT31;52070;53.760;9.678;2024-02-23T14:44:10;8.67;63.42
65374;SHT31;52070;53.760;9.678;2024-02-23T14:46:38;8.63;62.94
65374;SHT31;52070;53.760;9.678;2024-02-23T14:49:06;8.54;62.87
65374;SHT31;52070;53.760;9.678;2024-02-23T14:51:33;8.53;63.17
65374;SHT31;52070;53.760;9.678;2024-02-23T14:54:01;8.52;62.85
65374;SHT31;52070;53.760;9.678;2024-02-23T14:56:28;8.46;63.16
65374;SHT31;52070;53.760;9.678;2024-02-23T14:58:55;8.45;63.28
65374;SHT31;52070;53.760;9.678;2024-02-23T15:01:22;8.45;63.27
65374;SHT31;52070;53.760;9.678;2024-02-23T15:03:51;8.43;63.87
65374;SHT31;52070;53.760;9.678;2024-02-23T15:06:17;8.42;63.56
65374;SHT31;52070;53.760;9.678;2024-02-23T15:08:46;8.43;63.60
65374;SHT31;52070;53.760;9.678;2024-02-23T15:11:13;8.40;63.81
65374;SHT31;52070;53.760;9.678;2024-02-23T15:13:40;8.40;63.75
65374;SHT31;52070;53.760;9.678;2024-02-23T15:16:07;8.37;63.99
65374;SHT31;52070;53.760;9.678;2024-02-23T15:18:34;8.42;64.03
65374;SHT31;52070;53.760;9.678;2024-02-23T15:21:03;8.39;63.82
65374;SHT31;52070;53.760;9.678;2024-02-23T15:23:30;8.42;63.90
65374;SHT31;52070;53.760;9.678;2024-02-23T15:25:57;8.39;64.16
65374;SHT31;52070;53.760;9.678;2024-02-23T15:28:24;8.42;63.95
65374;SHT31;52070;53.760;9.678;2024-02-23T15:30:51;8.40;63.94
65374;SHT31;52070;53.760;9.678;2024-02-23T15:33:19;8.43;64.27
65374;SHT31;52070;53.760;9.678;2024-02-23T15:35:46;8.43;63.70
65374;SHT31;52070;53.760;9.678;2024-02-23T15:38:14;8.45;63.64
65374;SHT31;52070;53.760;9.678;2024-02-23T15:40:41;8.47;63.92
65374;SHT31;52070;53.760;9.678;2024-02-23T15:43:08;8.46;64.19
65374;SHT31;52070;53.760;9.678;2024-02-23T15:45:35;8.43;64.05